Time;durP1;ratioP1;P1;durP2;ratioP2;P2;SDS_P1;SDS_P2;PMS_P1;PMS_P2;Temp;Humidity;BMP_temperature;BMP_pressure;BME280_temperature;BME280_humidity;BME280_pressure;Samples;Min_cycle;Max_cycle;Signal;HPM_P1;HPM_P2
2022/04/03 00:00:35;;;;;;;16.52;10.60;;;179.40;2252.80;;;;;;5028358;28;20042;-61
2022/04/03 00:03:02;;;;;;;13.57;9.32;;;179.40;2252.80;;;;;;5028317;28;20147;-57
2022/04/03 00:05:28;;;;;;;12.85;8.85;;;179.30;2252.80;;;;;;5028572;28;20467;-57
2022/04/03 00:07:54;;;;;;;14.95;9.98;;;179.40;2252.80;;;;;;5028143;28;20090;-59
2022/04/03 00:10:22;;;;;;;13.60;9.40;;;179.30;2252.80;;;;;;5028430;28;20124;-60
2022/04/03 00:12:48;;;;;;;16.95;11.80;;;179.30;2252.80;;;;;;5032496;28;20041;-60
2022/04/03 00:15:14;;;;;;;20.67;13.40;;;179.40;2252.80;;;;;;5032134;28;20034;-58
2022/04/03 00:17:41;;;;;;;13.90;10.32;;;179.40;2252.80;;;;;;5032596;28;20387;-58
2022/04/03 00:20:08;;;;;;;20.42;12.45;;;179.30;2252.80;;;;;;5032264;28;20026;-56
2022/04/03 00:22:34;;;;;;;21.88;13.18;;;154.50;2252.80;;;;;;5031061;28;20037;-62
2022/04/03 00:25:00;;;;;;;24.15;16.00;;;154.50;2252.80;;;;;;5032195;28;20112;-57
2022/04/03 00:27:26;;;;;;;16.85;11.75;;;179.20;2252.80;;;;;;5031843;28;20022;-59
2022/04/03 00:29:53;;;;;;;21.05;13.43;;;154.50;2252.80;;;;;;5031930;28;20061;-57
2022/04/03 00:32:19;;;;;;;31.98;17.02;;;179.20;2252.80;;;;;;5032072;28;20060;-57
2022/04/03 00:34:46;;;;;;;15.80;11.82;;;154.50;2252.80;;;;;;5032311;28;20025;-58
2022/04/03 00:37:11;;;;;;;14.68;10.50;;;154.40;2252.80;;;;;;5031873;28;20057;-57
2022/04/03 00:39:37;;;;;;;15.93;10.13;;;154.20;2252.80;;;;;;5030418;28;20049;-60
2022/04/03 00:42:08;;;;;;;15.07;11.40;;;154.30;2252.80;;;;;;5031895;28;20025;-58
2022/04/03 00:44:37;;;;;;;19.80;12.23;;;154.20;2252.80;;;;;;5031657;28;20558;-56
2022/04/03 00:47:03;;;;;;;15.43;10.68;;;154.40;2252.80;;;;;;5031984;28;20349;-61
2022/04/03 00:49:30;;;;;;;16.35;11.20;;;154.30;2252.80;;;;;;5032411;28;20037;-56
2022/04/03 00:51:55;;;;;;;14.77;10.75;;;154.40;2252.80;;;;;;5033551;28;20036;-65
2022/04/03 00:54:21;;;;;;;16.02;11.60;;;154.30;2252.80;;;;;;5033252;28;20017;-56
2022/04/03 00:56:47;;;;;;;16.98;12.00;;;154.20;2252.80;;;;;;5033262;28;20026;-64
2022/04/03 00:59:14;;;;;;;19.60;12.40;;;154.10;2252.80;;;;;;5032942;28;20036;-63
2022/04/03 01:01:44;;;;;;;16.50;11.57;;;154.20;2252.80;;;;;;5033097;28;20101;-57
2022/04/03 01:04:10;;;;;;;19.70;12.45;;;154.10;2252.80;;;;;;5033165;28;20389;-60
2022/04/03 01:06:36;;;;;;;19.08;11.90;;;154.10;2252.80;;;;;;5033183;28;20021;-57
2022/04/03 01:09:03;;;;;;;17.10;11.40;;;154.10;2252.80;;;;;;5033058;28;20021;-63
2022/04/03 01:11:30;;;;;;;20.85;13.82;;;154.20;2252.80;;;;;;5032893;28;20554;-58
2022/04/03 01:13:56;;;;;;;18.60;13.35;;;154.20;2252.80;;;;;;5033225;28;20108;-63
2022/04/03 01:16:22;;;;;;;23.67;13.68;;;154.30;2252.80;;;;;;5032555;28;20519;-60
2022/04/03 01:18:48;;;;;;;16.08;11.57;;;154.30;2252.80;;;;;;5032935;28;20029;-56
2022/04/03 01:21:16;;;;;;;20.23;14.73;;;154.20;2252.80;;;;;;5032707;28;20105;-63
2022/04/03 01:23:42;;;;;;;19.35;13.68;;;154.20;2252.80;;;;;;5032757;28;20116;-56
2022/04/03 01:26:08;;;;;;;18.45;11.52;;;154.20;2252.80;;;;;;5031208;28;20040;-64
2022/04/03 01:28:34;;;;;;;18.30;11.98;;;154.10;2252.80;;;;;;5032700;28;20484;-62
2022/04/03 01:31:00;;;;;;;18.23;12.93;;;153.90;2252.80;;;;;;5032791;28;20095;-59
2022/04/03 01:33:26;;;;;;;18.10;13.07;;;153.90;2252.80;;;;;;5032852;28;20468;-59
2022/04/03 01:35:51;;;;;;;17.25;12.73;;;153.90;2252.80;;;;;;5032430;28;20025;-56
2022/04/03 01:38:17;;;;;;;19.25;13.52;;;153.80;2252.80;;;;;;5032530;28;20033;-56
2022/04/03 01:40:43;;;;;;;18.58;13.70;;;153.90;2252.80;;;;;;5032344;28;20032;-56
2022/04/03 01:43:10;;;;;;;18.40;13.15;;;153.70;2252.80;;;;;;5032649;28;20041;-56
2022/04/03 01:45:37;;;;;;;19.95;13.80;;;153.70;2252.80;;;;;;5032627;28;20104;-57
2022/04/03 01:48:04;;;;;;;19.30;13.63;;;153.60;2252.80;;;;;;5032375;28;20056;-57
2022/04/03 01:50:30;;;;;;;18.55;13.32;;;153.70;2252.80;;;;;;5032248;28;20037;-56
2022/04/03 01:52:57;;;;;;;20.77;14.85;;;153.80;2252.80;;;;;;5032298;28;20037;-57
2022/04/03 01:55:24;;;;;;;18.80;13.70;;;153.80;2252.80;;;;;;5031998;28;20068;-61
2022/04/03 01:57:50;;;;;;;21.98;13.68;;;153.70;2252.80;;;;;;5030967;28;20037;-58
2022/04/03 02:00:16;;;;;;;21.98;14.38;;;153.70;2252.80;;;;;;5032227;28;20393;-61
2022/04/03 02:02:42;;;;;;;18.63;13.75;;;153.90;2252.80;;;;;;5032027;28;20036;-61
2022/04/03 02:05:08;;;;;;;21.10;15.10;;;153.80;2252.80;;;;;;5032159;28;20025;-59
2022/04/03 02:07:34;;;;;;;20.95;15.25;;;153.80;2252.80;;;;;;5031849;28;20112;-60
2022/04/03 02:10:01;;;;;;;22.13;14.23;;;153.70;2252.80;;;;;;5031795;28;20108;-57
2022/04/03 02:12:26;;;;;;;19.65;14.77;;;153.70;2252.80;;;;;;5032151;28;20103;-57
2022/04/03 02:14:52;;;;;;;18.85;13.93;;;153.60;2252.80;;;;;;5031864;28;20033;-57
2022/04/03 02:17:18;;;;;;;17.55;12.27;;;153.60;2252.80;;;;;;5031956;28;20056;-56
2022/04/03 02:19:44;;;;;;;22.73;15.50;;;153.60;2252.80;;;;;;5031593;28;20356;-57
2022/04/03 02:22:10;;;;;;;21.05;14.98;;;153.70;2252.80;;;;;;5031587;28;20394;-57
2022/04/03 02:24:36;;;;;;;20.83;13.95;;;153.90;2252.80;;;;;;5031831;28;20096;-57
2022/04/03 02:27:01;;;;;;;20.95;14.48;;;153.80;2252.80;;;;;;5031526;28;20029;-56
2022/04/03 02:29:27;;;;;;;25.00;15.77;;;153.90;2252.80;;;;;;5031347;28;20057;-63
2022/04/03 02:31:53;;;;;;;20.75;15.05;;;153.70;2252.80;;;;;;5031314;28;20049;-57
2022/04/03 02:34:19;;;;;;;21.70;16.10;;;153.60;2252.80;;;;;;5031109;28;20082;-57
2022/04/03 02:36:45;;;;;;;20.70;14.70;;;153.70;2252.80;;;;;;5031491;28;20065;-56
2022/04/03 02:39:12;;;;;;;19.77;15.48;;;153.80;2252.80;;;;;;5031344;28;20021;-57
2022/04/03 02:41:38;;;;;;;23.23;15.57;;;153.80;2252.80;;;;;;5031457;28;20034;-56
2022/04/03 02:44:04;;;;;;;23.00;15.63;;;154.10;2252.80;;;;;;5031155;28;20030;-57
2022/04/03 02:46:31;;;;;;;19.10;13.50;;;153.70;2252.80;;;;;;5031186;28;20108;-57
2022/04/03 02:48:56;;;;;;;22.50;15.57;;;128.90;2252.80;;;;;;5031302;28;20076;-56
2022/04/03 02:51:22;;;;;;;20.23;14.05;;;128.90;2252.80;;;;;;5030895;28;20502;-56
2022/04/03 02:53:48;;;;;;;22.23;14.93;;;153.60;2252.80;;;;;;5031324;28;20064;-62
2022/04/03 02:56:14;;;;;;;24.73;18.02;;;128.80;2252.80;;;;;;5030915;28;20049;-56
2022/04/03 02:58:40;;;;;;;22.17;15.70;;;128.90;2252.80;;;;;;5030807;28;20037;-56
2022/04/03 03:01:06;;;;;;;23.20;15.52;;;128.90;2252.80;;;;;;5031046;28;20494;-57
2022/04/03 03:03:32;;;;;;;24.25;14.60;;;128.90;2252.80;;;;;;5031111;28;20025;-57
2022/04/03 03:05:58;;;;;;;21.45;14.07;;;128.90;2252.80;;;;;;5030999;28;20487;-62
2022/04/03 03:08:24;;;;;;;19.50;14.15;;;153.60;2252.80;;;;;;5030680;28;20029;-62
2022/04/03 03:10:50;;;;;;;22.45;15.23;;;153.70;2252.80;;;;;;5030525;28;20040;-56
2022/04/03 03:13:16;;;;;;;21.33;15.30;;;153.60;2252.80;;;;;;5030891;28;20037;-63
2022/04/03 03:15:42;;;;;;;21.90;15.45;;;128.90;2252.80;;;;;;5029529;28;20068;-58
2022/04/03 03:18:07;;;;;;;22.40;16.10;;;128.80;2252.80;;;;;;5030721;28;20053;-58
2022/04/03 03:20:34;;;;;;;19.02;14.13;;;128.90;2252.80;;;;;;5030739;28;20026;-56
2022/04/03 03:23:00;;;;;;;26.58;14.70;;;128.80;2252.80;;;;;;5030746;28;21022;-56
2022/04/03 03:25:27;;;;;;;20.60;14.98;;;128.80;2252.80;;;;;;5030667;28;20028;-61
2022/04/03 03:27:53;;;;;;;18.58;13.30;;;128.90;2252.80;;;;;;5030100;28;20037;-57
2022/04/03 03:30:18;;;;;;;18.45;13.95;;;128.80;2252.80;;;;;;5030503;28;20083;-58
2022/04/03 03:32:44;;;;;;;20.65;14.80;;;128.60;2252.80;;;;;;5030290;28;20065;-62
2022/04/03 03:35:10;;;;;;;24.77;14.80;;;128.70;2252.80;;;;;;5030253;28;20022;-57
2022/04/03 03:37:36;;;;;;;19.73;15.52;;;128.80;2252.80;;;;;;5030535;28;20033;-56
2022/04/03 03:40:03;;;;;;;22.38;15.45;;;128.80;2252.80;;;;;;5030248;28;20022;-57
2022/04/03 03:42:29;;;;;;;19.90;14.75;;;128.70;2252.80;;;;;;5030395;28;20060;-57
2022/04/03 03:44:55;;;;;;;22.48;14.88;;;128.70;2252.80;;;;;;5029699;28;20476;-57
2022/04/03 03:47:22;;;;;;;21.92;15.35;;;128.60;2252.80;;;;;;5029938;28;20021;-57
2022/04/03 03:49:48;;;;;;;21.20;14.57;;;128.60;2252.80;;;;;;5030204;28;20392;-57
2022/04/03 03:52:14;;;;;;;20.30;14.52;;;128.60;2252.80;;;;;;5030121;28;20038;-63
2022/04/03 03:54:39;;;;;;;22.05;14.32;;;128.60;2252.80;;;;;;5030199;28;20522;-63
2022/04/03 03:57:05;;;;;;;21.17;14.52;;;128.50;2252.80;;;;;;5030189;28;20108;-62
2022/04/03 03:59:31;;;;;;;23.17;15.75;;;128.50;2252.80;;;;;;5029842;28;20107;-57
2022/04/03 04:01:56;;;;;;;20.15;15.38;;;128.50;2252.80;;;;;;5030219;28;20033;-57
2022/04/03 04:04:22;;;;;;;21.13;14.85;;;128.60;2252.80;;;;;;5029931;28;20025;-57
2022/04/03 04:06:48;;;;;;;27.67;20.77;;;128.60;2252.80;;;;;;5030077;28;20091;-56
2022/04/03 04:09:14;;;;;;;20.42;14.50;;;128.60;2252.80;;;;;;5029932;28;20094;-56
2022/04/03 04:11:40;;;;;;;22.00;17.48;;;128.70;2252.80;;;;;;5029853;28;20065;-56
2022/04/03 04:14:06;;;;;;;22.30;15.82;;;128.80;2252.80;;;;;;5029965;28;20033;-57
2022/04/03 04:16:31;;;;;;;20.77;15.73;;;128.80;2252.80;;;;;;5030120;28;20029;-56
2022/04/03 04:18:57;;;;;;;25.17;17.00;;;128.80;2252.80;;;;;;5029965;28;20095;-60
2022/04/03 04:21:23;;;;;;;19.55;14.90;;;128.70;2252.80;;;;;;5029873;28;20025;-57
2022/04/03 04:23:48;;;;;;;24.33;15.73;;;128.80;2252.80;;;;;;5029995;28;20025;-57
2022/04/03 04:26:15;;;;;;;22.33;19.77;;;153.60;2252.80;;;;;;5029796;28;20029;-56
2022/04/03 04:28:41;;;;;;;26.08;15.88;;;128.70;2252.80;;;;;;5029464;28;20076;-64
2022/04/03 04:31:07;;;;;;;23.08;17.10;;;128.60;2252.80;;;;;;5030024;28;20068;-63
2022/04/03 04:33:33;;;;;;;21.15;16.77;;;128.80;2252.80;;;;;;5028961;28;20060;-61
2022/04/03 04:35:59;;;;;;;29.23;22.45;;;128.80;2252.80;;;;;;5029840;28;20021;-65
2022/04/03 04:38:25;;;;;;;23.75;17.52;;;128.70;2252.80;;;;;;5029630;28;20060;-65
2022/04/03 04:40:51;;;;;;;27.27;19.70;;;128.70;2252.80;;;;;;5029540;28;20112;-58
2022/04/03 04:43:17;;;;;;;23.20;16.15;;;128.70;2252.80;;;;;;5029777;28;20119;-62
2022/04/03 04:45:43;;;;;;;27.83;24.83;;;128.60;2252.80;;;;;;5029556;28;20044;-57
2022/04/03 04:48:08;;;;;;;24.60;17.42;;;128.60;2252.80;;;;;;5029938;28;20422;-63
2022/04/03 04:50:34;;;;;;;23.95;17.20;;;128.70;2252.80;;;;;;5029460;28;20028;-57
2022/04/03 04:53:00;;;;;;;22.20;15.95;;;128.80;2252.80;;;;;;5029568;28;20494;-57
2022/04/03 04:55:26;;;;;;;23.08;16.85;;;128.90;2252.80;;;;;;5029590;28;20075;-57
2022/04/03 04:57:54;;;;;;;21.55;14.70;;;128.90;2252.80;;;;;;5031979;28;20484;-63
2022/04/03 05:00:21;;;;;;;32.80;27.42;;;128.80;2252.80;;;;;;5033752;28;20757;-57
2022/04/03 05:02:48;;;;;;;21.95;15.15;;;128.90;2252.80;;;;;;5032301;28;20434;-56
2022/04/03 05:05:15;;;;;;;24.15;15.27;;;128.90;2252.80;;;;;;5033075;28;20029;-59
2022/04/03 05:07:42;;;;;;;22.52;15.95;;;128.90;2252.80;;;;;;5033094;28;20060;-61
2022/04/03 05:10:09;;;;;;;23.90;16.10;;;128.90;2252.80;;;;;;5033115;28;20192;-56
2022/04/03 05:12:35;;;;;;;25.02;17.77;;;128.90;2252.80;;;;;;5033063;28;20068;-56
2022/04/03 05:15:01;;;;;;;22.38;15.25;;;153.60;2252.80;;;;;;5032882;28;20056;-56
2022/04/03 05:17:28;;;;;;;28.45;20.20;;;153.60;2252.80;;;;;;5032223;28;20033;-58
2022/04/03 05:19:57;;;;;;;24.90;16.38;;;153.60;2252.80;;;;;;5031668;28;20384;-56
2022/04/03 05:22:23;;;;;;;23.65;15.75;;;153.70;2252.80;;;;;;5032788;28;20025;-64
2022/04/03 05:24:53;;;;;;;51.15;39.00;;;153.70;2252.80;;;;;;5032998;28;20422;-64
2022/04/03 05:27:19;;;;;;;20.67;14.38;;;153.80;2252.80;;;;;;5032664;28;20056;-56
2022/04/03 05:29:46;;;;;;;22.55;15.90;;;153.80;2252.80;;;;;;5032662;28;20575;-57
2022/04/03 05:32:11;;;;;;;21.25;14.23;;;153.70;2252.80;;;;;;5032613;28;20387;-55
2022/04/03 05:34:38;;;;;;;20.10;14.02;;;153.60;2252.80;;;;;;5032924;28;20029;-64
2022/04/03 05:37:04;;;;;;;22.25;14.60;;;153.60;2252.80;;;;;;5032643;28;20033;-57
2022/04/03 05:39:30;;;;;;;20.67;14.15;;;153.60;2252.80;;;;;;5032944;28;20967;-63
2022/04/03 05:41:55;;;;;;;22.15;16.13;;;153.60;2252.80;;;;;;5031583;28;20042;-57
2022/04/03 05:44:22;;;;;;;19.65;14.80;;;153.70;2252.80;;;;;;5032345;28;20061;-57
2022/04/03 05:46:49;;;;;;;23.95;15.70;;;153.60;2252.80;;;;;;5032505;28;20036;-62
2022/04/03 05:49:15;;;;;;;82.43;58.88;;;153.70;2252.80;;;;;;5032145;28;20034;-60
2022/04/03 05:51:42;;;;;;;315.02;210.43;;;153.60;2252.80;;;;;;5032221;28;20048;-56
2022/04/03 05:54:08;;;;;;;183.02;123.03;;;153.70;2252.80;;;;;;5032303;28;20549;-63
2022/04/03 05:56:34;;;;;;;45.47;38.50;;;153.80;2252.80;;;;;;5032351;28;20025;-64
2022/04/03 05:59:00;;;;;;;25.60;19.98;;;153.80;2252.80;;;;;;5032067;28;20079;-57
2022/04/03 06:01:26;;;;;;;28.17;22.50;;;153.90;2252.80;;;;;;5032332;28;20383;-65
2022/04/03 06:03:52;;;;;;;45.67;30.52;;;154.10;2252.80;;;;;;5032091;28;20029;-56
2022/04/03 06:06:17;;;;;;;26.02;18.35;;;154.10;2252.80;;;;;;5032094;28;20534;-56
2022/04/03 06:08:43;;;;;;;32.05;21.25;;;154.10;2252.80;;;;;;5030939;28;20075;-57
2022/04/03 06:11:09;;;;;;;25.70;17.63;;;154.00;2252.80;;;;;;5031858;28;20087;-54
2022/04/03 06:13:36;;;;;;;29.73;19.23;;;154.10;2252.80;;;;;;5031956;28;20045;-57
2022/04/03 06:16:02;;;;;;;31.65;20.70;;;154.10;2252.80;;;;;;5031748;28;20030;-57
2022/04/03 06:18:28;;;;;;;97.22;53.67;;;154.20;2252.80;;;;;;5031955;28;20472;-57
2022/04/03 06:20:54;;;;;;;73.28;45.38;;;154.00;2252.80;;;;;;5031463;28;20032;-65
2022/04/03 06:23:22;;;;;;;34.42;22.15;;;154.00;2252.80;;;;;;5031565;28;20037;-57
2022/04/03 06:25:55;;;;;;;24.00;15.48;;;154.10;2252.80;;;;;;5031829;28;20026;-57
2022/04/03 06:28:20;;;;;;;22.40;15.88;;;154.00;2252.80;;;;;;5031304;28;20057;-61
2022/04/03 06:30:46;;;;;;;22.67;16.85;;;154.00;2252.80;;;;;;5031727;28;20484;-60
2022/04/03 06:33:13;;;;;;;22.00;15.55;;;154.00;2252.80;;;;;;5031319;28;20141;-63
2022/04/03 06:35:39;;;;;;;26.65;17.95;;;154.10;2252.80;;;;;;5031593;28;20021;-63
2022/04/03 06:38:05;;;;;;;24.02;17.25;;;154.20;2252.80;;;;;;5031496;28;20483;-57
2022/04/03 06:40:34;;;;;;;29.60;19.25;;;154.30;2252.80;;;;;;5031405;28;20022;-57
2022/04/03 06:43:01;;;;;;;36.15;25.65;;;154.30;2252.80;;;;;;5031271;28;20030;-56
2022/04/03 06:45:28;;;;;;;22.52;15.50;;;154.30;2252.80;;;;;;5031568;28;20361;-57
2022/04/03 06:47:55;;;;;;;22.50;19.10;;;154.30;2252.80;;;;;;5031188;28;20049;-56
2022/04/03 06:50:21;;;;;;;33.60;24.80;;;154.50;2252.80;;;;;;5030960;28;20488;-57
2022/04/03 06:52:47;;;;;;;32.97;24.38;;;154.50;2252.80;;;;;;5031243;28;20034;-56
2022/04/03 06:55:13;;;;;;;44.53;33.60;;;154.50;2252.80;;;;;;5030990;28;20033;-64
2022/04/03 06:57:39;;;;;;;42.67;32.42;;;154.50;2252.80;;;;;;5036929;28;20095;-56
2022/04/03 07:00:08;;;;;;;123.53;72.78;;;154.50;2252.80;;;;;;5039107;28;20107;-56
2022/04/03 07:02:34;;;;;;;41.60;28.45;;;154.50;2252.80;;;;;;5038918;28;20117;-64
2022/04/03 07:05:01;;;;;;;27.55;16.08;;;154.50;2252.80;;;;;;5039390;28;20025;-57
2022/04/03 07:07:26;;;;;;;36.65;29.60;;;179.20;2252.80;;;;;;5040494;28;20040;-57
2022/04/03 07:09:53;;;;;;;28.40;18.50;;;154.40;2252.80;;;;;;5038308;28;20022;-57
2022/04/03 07:12:19;;;;;;;26.17;20.92;;;154.30;2252.80;;;;;;5039583;28;20033;-57
2022/04/03 07:14:46;;;;;;;103.53;54.17;;;154.40;2252.80;;;;;;5040058;28;20037;-65
2022/04/03 07:17:12;;;;;;;33.42;22.63;;;154.30;2252.80;;;;;;5038342;28;20032;-56
2022/04/03 07:19:38;;;;;;;35.33;24.88;;;154.40;2252.80;;;;;;5039522;28;20163;-62
2022/04/03 07:22:04;;;;;;;26.88;16.48;;;179.20;2252.80;;;;;;5039797;28;20108;-63
2022/04/03 07:24:30;;;;;;;27.02;17.15;;;154.50;2252.80;;;;;;5038205;28;20383;-56
2022/04/03 07:26:56;;;;;;;22.85;16.42;;;179.20;2252.80;;;;;;5039862;28;20029;-60
2022/04/03 07:29:23;;;;;;;24.13;16.27;;;154.50;2252.80;;;;;;5038950;28;20049;-56
2022/04/03 07:31:53;;;;;;;22.33;15.73;;;154.40;2252.80;;;;;;5037949;28;20052;-57
2022/04/03 07:34:19;;;;;;;59.03;40.65;;;154.40;2252.80;;;;;;5038156;28;20446;-60
2022/04/03 07:36:44;;;;;;;29.98;20.50;;;154.20;2252.80;;;;;;5036511;28;20384;-56
2022/04/03 07:39:11;;;;;;;22.60;16.90;;;154.50;2252.80;;;;;;5037831;28;20024;-57
2022/04/03 07:41:37;;;;;;;23.67;16.85;;;154.40;2252.80;;;;;;5038152;28;20029;-58
2022/04/03 07:44:08;;;;;;;39.33;26.58;;;154.40;2252.80;;;;;;5036231;28;20021;-60
2022/04/03 07:46:33;;;;;;;25.08;15.45;;;154.10;2252.80;;;;;;5035811;28;20124;-64
2022/04/03 07:49:00;;;;;;;30.77;21.58;;;154.10;2252.80;;;;;;5037668;28;20116;-58
2022/04/03 07:51:27;;;;;;;27.88;19.38;;;154.30;2252.80;;;;;;5034343;28;20090;-57
2022/04/03 07:53:53;;;;;;;31.15;21.90;;;154.50;2252.80;;;;;;5037329;28;20368;-54
2022/04/03 07:56:19;;;;;;;22.30;15.32;;;154.50;2252.80;;;;;;5036660;28;20099;-65
2022/04/03 07:58:44;;;;;;;24.90;17.98;;;154.50;2252.80;;;;;;5038225;28;20123;-59
2022/04/03 08:01:10;;;;;;;20.45;14.18;;;154.30;2252.80;;;;;;5035044;28;20029;-61
2022/04/03 08:03:36;;;;;;;28.20;19.52;;;154.20;2252.80;;;;;;5036986;28;20079;-61
2022/04/03 08:06:02;;;;;;;22.02;14.52;;;154.30;2252.80;;;;;;5037942;28;20522;-64
2022/04/03 08:08:27;;;;;;;33.15;24.50;;;154.40;2252.80;;;;;;5036685;28;20033;-58
2022/04/03 08:10:53;;;;;;;26.33;17.85;;;154.30;2252.80;;;;;;5036951;28;20382;-64
2022/04/03 08:13:20;;;;;;;21.83;14.25;;;154.40;2252.80;;;;;;5037845;28;20022;-59
2022/04/03 08:15:46;;;;;;;35.38;23.48;;;154.20;2252.80;;;;;;5036822;28;20052;-66
2022/04/03 08:18:12;;;;;;;27.10;21.50;;;154.40;2252.80;;;;;;5036198;28;20505;-58
2022/04/03 08:20:38;;;;;;;17.27;13.05;;;154.40;2252.80;;;;;;5038096;28;20025;-57
2022/04/03 08:23:05;;;;;;;21.63;15.10;;;154.50;2252.80;;;;;;5036580;28;20025;-56
2022/04/03 08:25:35;;;;;;;13.98;10.55;;;179.60;2252.80;;;;;;5035504;28;20104;-60
2022/04/03 08:28:02;;;;;;;22.65;16.23;;;179.80;2252.80;;;;;;5037804;28;20768;-65
2022/04/03 08:30:33;;;;;;;15.95;12.15;;;204.90;2252.80;;;;;;5035209;28;20480;-56
2022/04/03 08:33:00;;;;;;;16.70;13.98;;;205.50;2252.80;;;;;;5033345;28;20069;-55
2022/04/03 08:35:28;;;;;;;14.75;11.10;;;205.40;2252.80;;;;;;5042394;28;20029;-54
2022/04/03 08:37:55;;;;;;;25.15;20.33;;;205.40;2252.80;;;;;;5031717;28;20034;-56
2022/04/03 08:40:23;;;;;;;11.23;8.00;;;205.50;2252.80;;;;;;5031335;28;20029;-62
2022/04/03 08:42:54;;;;;;;23.85;16.98;;;205.40;2252.80;;;;;;5032187;28;20487;-58
2022/04/03 08:45:20;;;;;;;17.17;14.48;;;205.70;2201.60;;;;;;5031878;28;20510;-56
2022/04/03 08:47:52;;;;;;;17.38;11.63;;;230.50;2176.00;;;;;;5032284;28;20370;-55
2022/04/03 08:50:19;;;;;;;13.18;9.40;;;230.60;2073.60;;;;;;5031848;28;20044;-63
2022/04/03 08:52:47;;;;;;;29.67;20.55;;;230.60;2073.60;;;;;;5031615;28;20041;-57
2022/04/03 08:55:14;;;;;;;16.42;11.63;;;205.70;2073.60;;;;;;5034178;28;20020;-55
2022/04/03 08:57:40;;;;;;;15.02;8.80;;;205.30;2099.20;;;;;;5041059;28;20036;-56
2022/04/03 09:00:07;;;;;;;12.75;10.85;;;205.30;2099.20;;;;;;5041463;28;20030;-57
2022/04/03 09:02:33;;;;;;;13.73;9.68;;;205.20;2099.20;;;;;;5042611;28;20072;-55
2022/04/03 09:04:59;;;;;;;16.58;10.60;;;205.00;2124.80;;;;;;5041830;28;20020;-57
2022/04/03 09:07:25;;;;;;;11.93;10.25;;;204.80;2176.00;;;;;;5040655;28;20029;-64
2022/04/03 09:10:17;;;;;;;17.92;11.25;;;180.10;2201.60;;;;;;5042321;28;20159;-56
2022/04/03 09:12:47;;;;;;;21.35;15.65;;;180.10;2176.00;;;;;;5040588;28;20171;-65
2022/04/03 09:15:18;;;;;;;21.52;15.82;;;204.80;2176.00;;;;;;5042459;28;20050;-57
2022/04/03 09:17:49;;;;;;;14.75;11.93;;;205.00;2201.60;;;;;;5037202;28;20112;-56
2022/04/03 09:20:19;;;;;;;25.58;21.15;;;205.10;2201.60;;;;;;5032268;28;20030;-56
2022/04/03 09:22:49;;;;;;;16.35;11.80;;;205.10;2176.00;;;;;;5032887;28;20112;-56
2022/04/03 09:25:17;;;;;;;15.90;10.77;;;205.20;2201.60;;;;;;5032910;28;20018;-56
2022/04/03 09:27:50;;;;;;;25.05;15.30;;;205.70;2073.60;;;;;;5030480;28;20034;-56
2022/04/03 09:30:18;;;;;;;20.23;17.60;;;231.30;1996.80;;;;;;5031216;28;20048;-56
2022/04/03 09:32:54;;;;;;;19.60;12.70;;;256.40;1945.60;;;;;;5041030;28;20077;-56
2022/04/03 09:35:21;;;;;;;23.13;15.55;;;256.10;1920.00;;;;;;5050545;28;20029;-56
2022/04/03 09:38:16;;;;;;;18.92;14.23;;;231.00;1945.60;;;;;;5051287;28;20025;-61
2022/04/03 09:40:44;;;;;;;21.42;16.33;;;230.60;1971.20;;;;;;5049086;28;20037;-59
2022/04/03 09:43:19;;;;;;;24.02;15.77;;;230.50;2022.40;;;;;;5049610;28;20505;-56
2022/04/03 09:45:50;;;;;;;26.23;18.60;;;205.50;2022.40;;;;;;5050775;28;20510;-57
2022/04/03 09:48:20;;;;;;;31.85;20.90;;;205.30;2099.20;;;;;;5050671;28;20032;-70
2022/04/03 09:51:10;;;;;;;55.00;36.67;;;204.90;2073.60;;;;;;5039796;28;20136;-58
2022/04/03 09:53:42;;;;;;;41.47;26.33;;;205.00;2124.80;;;;;;5040180;28;20041;-62
2022/04/03 09:56:09;;;;;;;24.27;18.88;;;205.00;2124.80;;;;;;5039923;28;20112;-66
2022/04/03 09:58:50;;;;;;;29.88;18.27;;;204.90;2124.80;;;;;;5038134;28;20495;-64
2022/04/03 10:01:30;;;;;;;48.78;33.78;;;205.20;2073.60;;;;;;5038620;28;20083;-61
2022/04/03 10:03:59;;;;;;;32.55;23.38;;;205.70;2073.60;;;;;;5039000;28;20030;-57
2022/04/03 10:06:25;;;;;;;18.85;11.70;;;230.70;2099.20;;;;;;5039099;28;20028;-63
2022/04/03 10:08:51;;;;;;;16.20;13.32;;;230.80;1996.80;;;;;;5040338;28;20495;-66
2022/04/03 10:11:18;;;;;;;22.92;16.63;;;230.70;1945.60;;;;;;5039247;28;20021;-64
2022/04/03 10:13:44;;;;;;;16.27;11.57;;;230.60;1945.60;;;;;;5039717;28;20037;-64
2022/04/03 10:16:11;;;;;;;32.92;23.17;;;205.70;1996.80;;;;;;5039738;28;20056;-62
2022/04/03 10:18:37;;;;;;;19.80;14.70;;;205.50;1996.80;;;;;;5038018;28;20029;-56
2022/04/03 10:21:07;;;;;;;18.35;12.75;;;205.20;2022.40;;;;;;5039239;28;20017;-57
2022/04/03 10:23:34;;;;;;;20.75;14.38;;;205.30;2022.40;;;;;;5039701;28;20029;-62
2022/04/03 10:26:04;;;;;;;17.92;12.10;;;205.30;2022.40;;;;;;5038220;28;20105;-65
2022/04/03 10:28:30;;;;;;;17.70;13.00;;;205.40;2022.40;;;;;;5038153;28;20565;-57
2022/04/03 10:31:06;;;;;;;13.82;11.85;;;205.40;2022.40;;;;;;5039935;28;20029;-64
2022/04/03 10:33:37;;;;;;;21.15;15.50;;;205.30;2022.40;;;;;;5029432;28;20037;-56
2022/04/03 10:36:09;;;;;;;22.30;14.27;;;205.40;2022.40;;;;;;5034424;28;20506;-55
2022/04/03 10:38:48;;;;;;;19.08;10.93;;;205.20;1996.80;;;;;;5049607;28;20032;-58
2022/04/03 10:41:31;;;;;;;26.02;15.82;;;205.20;2022.40;;;;;;5049533;28;20052;-61
2022/04/03 10:44:18;;;;;;;17.23;11.13;;;205.30;1996.80;;;;;;5049908;28;20029;-65
2022/04/03 10:47:04;;;;;;;27.88;16.63;;;205.30;1996.80;;;;;;5049270;28;20096;-60
2022/04/03 10:49:30;;;;;;;63.97;37.90;;;205.40;1971.20;;;;;;5049548;28;20052;-61
2022/04/03 10:52:03;;;;;;;17.55;11.02;;;205.30;1971.20;;;;;;5049432;28;20036;-58
2022/04/03 10:54:40;;;;;;;14.57;10.75;;;205.40;1971.20;;;;;;5049301;28;20021;-61
2022/04/03 10:57:33;;;;;;;22.02;14.70;;;205.50;1945.60;;;;;;5043016;28;20048;-57
2022/04/03 11:00:14;;;;;;;20.75;12.30;;;230.50;1945.60;;;;;;5039183;28;20025;-66
2022/04/03 11:02:55;;;;;;;17.60;13.80;;;231.00;1894.40;;;;;;5037505;28;20024;-57
2022/04/03 11:05:26;;;;;;;20.75;14.38;;;231.20;1894.40;;;;;;5037233;28;20065;-62
2022/04/03 11:08:03;;;;;;;22.42;16.15;;;231.20;1843.20;;;;;;5037703;28;20021;-59
2022/04/03 11:10:57;;;;;;;19.05;13.80;;;231.00;1868.80;;;;;;5038151;28;20055;-65
2022/04/03 11:13:32;;;;;;;15.88;11.02;;;231.00;1868.80;;;;;;5028905;28;20037;-58
2022/04/03 11:16:06;;;;;;;19.52;12.43;;;230.80;1868.80;;;;;;5038261;28;20021;-62
2022/04/03 11:18:45;;;;;;;12.32;8.73;;;230.80;1894.40;;;;;;5050034;28;20028;-57
2022/04/03 11:21:25;;;;;;;12.75;9.32;;;230.70;1894.40;;;;;;5050677;28;20025;-57
2022/04/03 11:24:07;;;;;;;22.02;10.20;;;231.00;1894.40;;;;;;5050397;28;20033;-57
2022/04/03 11:26:35;;;;;;;12.98;10.05;;;231.00;1868.80;;;;;;5050498;28;20111;-65
2022/04/03 11:29:01;;;;;;;15.45;10.48;;;231.00;1894.40;;;;;;5050131;28;20045;-57
2022/04/03 11:31:28;;;;;;;12.10;10.65;;;256.20;1868.80;;;;;;5050374;28;20025;-57
2022/04/03 11:33:56;;;;;;;13.63;9.63;;;231.20;1843.20;;;;;;5050241;28;20103;-56
2022/04/03 11:36:27;;;;;;;15.00;10.13;;;231.20;1843.20;;;;;;5050209;28;20021;-61
2022/04/03 11:38:54;;;;;;;13.63;9.45;;;231.20;1868.80;;;;;;5050074;28;20033;-56
2022/04/03 11:41:31;;;;;;;14.73;9.25;;;231.10;1843.20;;;;;;5050037;28;20039;-57
2022/04/03 11:44:08;;;;;;;17.58;9.30;;;231.10;1843.20;;;;;;5050191;28;20029;-56
2022/04/03 11:46:42;;;;;;;19.08;10.88;;;231.20;1843.20;;;;;;5050140;28;20382;-56
2022/04/03 11:49:15;;;;;;;13.98;10.65;;;231.30;1817.60;;;;;;5038077;28;20060;-59
2022/04/03 11:51:42;;;;;;;15.68;9.63;;;231.30;1817.60;;;;;;5030309;28;20048;-63
2022/04/03 11:54:08;;;;;;;11.68;8.82;;;230.90;1843.20;;;;;;5036570;28;20025;-57
2022/04/03 11:56:36;;;;;;;13.10;9.32;;;231.10;1817.60;;;;;;5037171;28;20025;-57
2022/04/03 11:59:07;;;;;;;15.20;9.48;;;230.90;1843.20;;;;;;5038103;28;20025;-60
2022/04/03 12:01:35;;;;;;;13.00;9.80;;;230.80;1868.80;;;;;;5036898;28;20053;-57